sensor_id;sensor_type;location;lat;lon;timestamp;pressure;altitude;pressure_sealevel;temperature;humidity
12664;BME280;6396;58.490;15.528;2023-07-13T00:01:48;99930.31;;;15.88;100.00
12664;BME280;6396;58.490;15.528;2023-07-13T00:04:16;99790.72;;;15.03;100.00
12664;BME280;6396;58.490;15.528;2023-07-13T00:06:44;99900.72;;;15.62;100.00
12664;BME280;6396;58.490;15.528;2023-07-13T00:09:11;99918.13;;;15.84;100.00
12664;BME280;6396;58.490;15.528;2023-07-13T00:11:39;99797.47;;;15.08;100.00
12664;BME280;6396;58.490;15.528;2023-07-13T00:14:06;99866.84;;;15.50;100.00
12664;BME280;6396;58.490;15.528;2023-07-13T00:16:36;100025.31;;;15.87;100.00
12664;BME280;6396;58.490;15.528;2023-07-13T00:19:03;99926.28;;;15.81;100.00
12664;BME280;6396;58.490;15.528;2023-07-13T00:21:32;99711.41;;;14.50;100.00
12664;BME280;6396;58.490;15.528;2023-07-13T00:23:58;99533.34;;;13.44;100.00
12664;BME280;6396;58.490;15.528;2023-07-13T00:26:26;99952.41;;;15.74;100.00
12664;BME280;6396;58.490;15.528;2023-07-13T00:28:53;99940.81;;;15.75;100.00
12664;BME280;6396;58.490;15.528;2023-07-13T00:31:20;99757.56;;;14.63;100.00
12664;BME280;6396;58.490;15.528;2023-07-13T00:33:48;99937.91;;;15.80;100.00
12664;BME280;6396;58.490;15.528;2023-07-13T00:36:15;99697.44;;;14.31;100.00
12664;BME280;6396;58.490;15.528;2023-07-13T00:38:42;99893.97;;;15.26;100.00
12664;BME280;6396;58.490;15.528;2023-07-13T00:41:10;99782.34;;;14.95;100.00
12664;BME280;6396;58.490;15.528;2023-07-13T00:43:36;99720.38;;;14.47;100.00
12664;BME280;6396;58.490;15.528;2023-07-13T00:46:16;99826.72;;;15.24;100.00
12664;BME280;6396;58.490;15.528;2023-07-13T00:48:44;99969.47;;;15.86;100.00
12664;BME280;6396;58.490;15.528;2023-07-13T00:51:16;99663.03;;;13.81;100.00
12664;BME280;6396;58.490;15.528;2023-07-13T00:53:44;99932.56;;;15.80;100.00
12664;BME280;6396;58.490;15.528;2023-07-13T00:56:11;99944.34;;;15.76;100.00
12664;BME280;6396;58.490;15.528;2023-07-13T00:58:38;99891.31;;;15.41;100.00
12664;BME280;6396;58.490;15.528;2023-07-13T01:01:05;99956.09;;;15.72;100.00
12664;BME280;6396;58.490;15.528;2023-07-13T01:03:34;99981.94;;;15.70;100.00
12664;BME280;6396;58.490;15.528;2023-07-13T01:06:01;99880.19;;;15.19;100.00
12664;BME280;6396;58.490;15.528;2023-07-13T01:08:29;99685.25;;;14.11;100.00
12664;BME280;6396;58.490;15.528;2023-07-13T01:10:57;99762.13;;;14.45;100.00
12664;BME280;6396;58.490;15.528;2023-07-13T01:13:25;99895.34;;;15.17;100.00
12664;BME280;6396;58.490;15.528;2023-07-13T01:15:53;99949.09;;;15.55;100.00
12664;BME280;6396;58.490;15.528;2023-07-13T01:18:23;99964.38;;;15.51;100.00
12664;BME280;6396;58.490;15.528;2023-07-13T01:20:53;99959.06;;;15.51;100.00
12664;BME280;6396;58.490;15.528;2023-07-13T01:23:21;99844.06;;;14.84;100.00
12664;BME280;6396;58.490;15.528;2023-07-13T01:25:48;99932.16;;;14.94;100.00
12664;BME280;6396;58.490;15.528;2023-07-13T01:28:15;99942.56;;;15.45;100.00
12664;BME280;6396;58.490;15.528;2023-07-13T01:30:43;99887.47;;;15.00;100.00
12664;BME280;6396;58.490;15.528;2023-07-13T01:33:11;99503.59;;;12.74;100.00
12664;BME280;6396;58.490;15.528;2023-07-13T01:35:39;99875.66;;;14.90;100.00
12664;BME280;6396;58.490;15.528;2023-07-13T01:38:07;99972.97;;;15.41;100.00
12664;BME280;6396;58.490;15.528;2023-07-13T01:40:35;99855.91;;;14.79;100.00
12664;BME280;6396;58.490;15.528;2023-07-13T01:43:03;99963.16;;;15.41;100.00
12664;BME280;6396;58.490;15.528;2023-07-13T01:45:30;99846.44;;;14.57;100.00
12664;BME280;6396;58.490;15.528;2023-07-13T01:47:57;99995.09;;;15.41;100.00
12664;BME280;6396;58.490;15.528;2023-07-13T01:50:24;99632.66;;;13.38;100.00
12664;BME280;6396;58.490;15.528;2023-07-13T01:52:51;99903.59;;;14.82;100.00
12664;BME280;6396;58.490;15.528;2023-07-13T01:55:20;99968.13;;;15.32;100.00
12664;BME280;6396;58.490;15.528;2023-07-13T01:57:47;99973.53;;;15.30;100.00
12664;BME280;6396;58.490;15.528;2023-07-13T02:00:14;99985.97;;;15.30;100.00
12664;BME280;6396;58.490;15.528;2023-07-13T02:02:41;99905.38;;;14.81;100.00
12664;BME280;6396;58.490;15.528;2023-07-13T02:05:09;99826.72;;;14.30;100.00
12664;BME280;6396;58.490;15.528;2023-07-13T02:07:36;99984.09;;;15.16;100.00
12664;BME280;6396;58.490;15.528;2023-07-13T02:10:04;100000.63;;;15.21;100.00
12664;BME280;6396;58.490;15.528;2023-07-13T02:12:32;99723.09;;;13.50;100.00
12664;BME280;6396;58.490;15.528;2023-07-13T02:14:59;99984.69;;;15.37;100.00
12664;BME280;6396;58.490;15.528;2023-07-13T02:17:27;99983.72;;;15.38;100.00
12664;BME280;6396;58.490;15.528;2023-07-13T02:19:54;100009.66;;;15.34;100.00
12664;BME280;6396;58.490;15.528;2023-07-13T02:22:21;99984.97;;;15.32;100.00
12664;BME280;6396;58.490;15.528;2023-07-13T02:24:48;99985.88;;;15.31;100.00
12664;BME280;6396;58.490;15.528;2023-07-13T02:27:14;99890.91;;;14.71;100.00
12664;BME280;6396;58.490;15.528;2023-07-13T02:29:42;99839.22;;;14.28;100.00
12664;BME280;6396;58.490;15.528;2023-07-13T02:32:09;99902.22;;;14.75;100.00
12664;BME280;6396;58.490;15.528;2023-07-13T02:34:36;99992.25;;;15.29;100.00
12664;BME280;6396;58.490;15.528;2023-07-13T02:37:03;99950.31;;;14.86;100.00
12664;BME280;6396;58.490;15.528;2023-07-13T02:39:30;100000.56;;;15.23;100.00
12664;BME280;6396;58.490;15.528;2023-07-13T02:41:58;99932.16;;;14.78;100.00
12664;BME280;6396;58.490;15.528;2023-07-13T02:44:26;100000.72;;;15.20;100.00
12664;BME280;6396;58.490;15.528;2023-07-13T02:46:54;99973.81;;;14.93;100.00
12664;BME280;6396;58.490;15.528;2023-07-13T02:49:21;100042.59;;;15.16;100.00
12664;BME280;6396;58.490;15.528;2023-07-13T02:51:47;99633.72;;;13.02;100.00
12664;BME280;6396;58.490;15.528;2023-07-13T02:54:14;99992.25;;;14.96;100.00
12664;BME280;6396;58.490;15.528;2023-07-13T02:56:41;100005.19;;;15.19;100.00
12664;BME280;6396;58.490;15.528;2023-07-13T02:59:09;99907.22;;;14.48;100.00
12664;BME280;6396;58.490;15.528;2023-07-13T03:01:36;100047.91;;;15.16;100.00
12664;BME280;6396;58.490;15.528;2023-07-13T03:04:04;99872.31;;;14.21;100.00
12664;BME280;6396;58.490;15.528;2023-07-13T03:06:31;99953.28;;;14.64;100.00
12664;BME280;6396;58.490;15.528;2023-07-13T03:08:58;99631.44;;;12.94;100.00
12664;BME280;6396;58.490;15.528;2023-07-13T03:11:25;99890.22;;;14.50;100.00
12664;BME280;6396;58.490;15.528;2023-07-13T03:13:52;99842.22;;;14.21;100.00
12664;BME280;6396;58.490;15.528;2023-07-13T03:16:19;99866.03;;;14.22;100.00
12664;BME280;6396;58.490;15.528;2023-07-13T03:18:46;99766.78;;;13.77;100.00
12664;BME280;6396;58.490;15.528;2023-07-13T03:21:15;100024.56;;;15.21;100.00
12664;BME280;6396;58.490;15.528;2023-07-13T03:23:42;99680.25;;;13.07;100.00
12664;BME280;6396;58.490;15.528;2023-07-13T03:26:11;99828.00;;;13.89;100.00
12664;BME280;6396;58.490;15.528;2023-07-13T03:28:39;99824.69;;;14.01;100.00
12664;BME280;6396;58.490;15.528;2023-07-13T03:31:08;99912.22;;;14.37;100.00
12664;BME280;6396;58.490;15.528;2023-07-13T03:33:36;100055.88;;;15.16;100.00
12664;BME280;6396;58.490;15.528;2023-07-13T03:36:03;99960.59;;;14.76;100.00
12664;BME280;6396;58.490;15.528;2023-07-13T03:38:32;99957.94;;;14.76;100.00
12664;BME280;6396;58.490;15.528;2023-07-13T03:40:59;100079.47;;;15.22;100.00
12664;BME280;6396;58.490;15.528;2023-07-13T03:43:26;99929.56;;;14.44;100.00
12664;BME280;6396;58.490;15.528;2023-07-13T03:45:53;100003.03;;;14.78;100.00
12664;BME280;6396;58.490;15.528;2023-07-13T03:48:20;100068.84;;;15.22;100.00
12664;BME280;6396;58.490;15.528;2023-07-13T03:50:47;100051.00;;;15.24;100.00
12664;BME280;6396;58.490;15.528;2023-07-13T03:53:14;99961.38;;;14.78;100.00
12664;BME280;6396;58.490;15.528;2023-07-13T03:55:42;100018.19;;;14.76;100.00
12664;BME280;6396;58.490;15.528;2023-07-13T03:58:28;100046.88;;;15.19;100.00
12664;BME280;6396;58.490;15.528;2023-07-13T04:00:56;100046.03;;;15.18;100.00
12664;BME280;6396;58.490;15.528;2023-07-13T04:03:23;100049.28;;;15.23;100.00
12664;BME280;6396;58.490;15.528;2023-07-13T04:05:50;100017.28;;;15.09;100.00
12664;BME280;6396;58.490;15.528;2023-07-13T04:08:17;100061.31;;;15.30;100.00
12664;BME280;6396;58.490;15.528;2023-07-13T04:10:45;99999.84;;;15.04;100.00
12664;BME280;6396;58.490;15.528;2023-07-13T04:13:12;100048.03;;;15.30;100.00
12664;BME280;6396;58.490;15.528;2023-07-13T04:15:40;99800.00;;;13.84;100.00
12664;BME280;6396;58.490;15.528;2023-07-13T04:18:06;100055.03;;;15.31;100.00
12664;BME280;6396;58.490;15.528;2023-07-13T04:20:34;100052.38;;;15.31;100.00
12664;BME280;6396;58.490;15.528;2023-07-13T04:23:01;100039.91;;;15.01;100.00
12664;BME280;6396;58.490;15.528;2023-07-13T04:25:28;100064.75;;;15.32;100.00
12664;BME280;6396;58.490;15.528;2023-07-13T04:27:56;100050.34;;;15.36;100.00
12664;BME280;6396;58.490;15.528;2023-07-13T04:30:23;100049.41;;;15.37;100.00
12664;BME280;6396;58.490;15.528;2023-07-13T04:32:50;99974.31;;;14.84;100.00
12664;BME280;6396;58.490;15.528;2023-07-13T04:35:18;99984.75;;;15.04;100.00
12664;BME280;6396;58.490;15.528;2023-07-13T04:37:47;100039.44;;;15.25;100.00
12664;BME280;6396;58.490;15.528;2023-07-13T04:40:15;99979.25;;;15.07;100.00
12664;BME280;6396;58.490;15.528;2023-07-13T04:42:42;99905.94;;;14.55;100.00
12664;BME280;6396;58.490;15.528;2023-07-13T04:45:11;100066.25;;;15.53;100.00
12664;BME280;6396;58.490;15.528;2023-07-13T04:47:38;100050.91;;;15.58;100.00
12664;BME280;6396;58.490;15.528;2023-07-13T04:50:09;100050.66;;;15.63;100.00
12664;BME280;6396;58.490;15.528;2023-07-13T04:52:36;100048.75;;;15.65;100.00
12664;BME280;6396;58.490;15.528;2023-07-13T04:55:04;100014.06;;;15.51;100.00
12664;BME280;6396;58.490;15.528;2023-07-13T04:57:31;99891.59;;;14.75;100.00
12664;BME280;6396;58.490;15.528;2023-07-13T04:59:59;100000.06;;;15.32;100.00
12664;BME280;6396;58.490;15.528;2023-07-13T05:02:27;100047.38;;;15.74;100.00
12664;BME280;6396;58.490;15.528;2023-07-13T05:04:56;99989.22;;;15.19;100.00
12664;BME280;6396;58.490;15.528;2023-07-13T05:07:24;100040.97;;;15.78;100.00
12664;BME280;6396;58.490;15.528;2023-07-13T05:09:51;99928.22;;;15.01;100.00
12664;BME280;6396;58.490;15.528;2023-07-13T05:12:18;100085.53;;;15.90;100.00
12664;BME280;6396;58.490;15.528;2023-07-13T05:14:46;100003.25;;;15.54;100.00
12664;BME280;6396;58.490;15.528;2023-07-13T05:17:14;100080.03;;;15.93;100.00
12664;BME280;6396;58.490;15.528;2023-07-13T05:19:43;100056.81;;;15.95;100.00
12664;BME280;6396;58.490;15.528;2023-07-13T05:22:09;100053.97;;;15.98;100.00
12664;BME280;6396;58.490;15.528;2023-07-13T05:24:36;99701.31;;;13.93;100.00
12664;BME280;6396;58.490;15.528;2023-07-13T05:27:03;100060.69;;;16.05;100.00
12664;BME280;6396;58.490;15.528;2023-07-13T05:29:30;99966.97;;;15.53;100.00
12664;BME280;6396;58.490;15.528;2023-07-13T05:31:57;100079.06;;;16.09;100.00
12664;BME280;6396;58.490;15.528;2023-07-13T05:34:24;99995.09;;;15.57;100.00
12664;BME280;6396;58.490;15.528;2023-07-13T05:36:53;100019.56;;;15.79;100.00
12664;BME280;6396;58.490;15.528;2023-07-13T05:39:20;99801.38;;;14.56;100.00
12664;BME280;6396;58.490;15.528;2023-07-13T05:41:46;99938.44;;;15.39;100.00
12664;BME280;6396;58.490;15.528;2023-07-13T05:44:13;100064.22;;;16.35;100.00
12664;BME280;6396;58.490;15.528;2023-07-13T05:46:40;100081.00;;;16.37;100.00
12664;BME280;6396;58.490;15.528;2023-07-13T05:49:07;100064.63;;;16.43;100.00
12664;BME280;6396;58.490;15.528;2023-07-13T05:51:33;100044.66;;;16.20;100.00
12664;BME280;6396;58.490;15.528;2023-07-13T05:54:01;100061.81;;;16.46;100.00
12664;BME280;6396;58.490;15.528;2023-07-13T05:56:28;100071.53;;;16.47;100.00
12664;BME280;6396;58.490;15.528;2023-07-13T05:58:56;99918.50;;;15.31;100.00
12664;BME280;6396;58.490;15.528;2023-07-13T06:01:23;100083.66;;;16.52;100.00
12664;BME280;6396;58.490;15.528;2023-07-13T06:03:50;100021.22;;;16.27;100.00
12664;BME280;6396;58.490;15.528;2023-07-13T06:06:17;100078.03;;;16.57;100.00
12664;BME280;6396;58.490;15.528;2023-07-13T06:08:44;100074.44;;;16.58;100.00
12664;BME280;6396;58.490;15.528;2023-07-13T06:11:15;100084.44;;;16.54;100.00
12664;BME280;6396;58.490;15.528;2023-07-13T06:13:42;100076.06;;;16.45;100.00
12664;BME280;6396;58.490;15.528;2023-07-13T06:16:09;99996.13;;;15.70;100.00
12664;BME280;6396;58.490;15.528;2023-07-13T06:18:37;100055.66;;;16.30;100.00
12664;BME280;6396;58.490;15.528;2023-07-13T06:21:07;100092.88;;;16.47;100.00
12664;BME280;6396;58.490;15.528;2023-07-13T06:23:36;100038.03;;;16.27;100.00
12664;BME280;6396;58.490;15.528;2023-07-13T06:26:03;99770.59;;;14.83;100.00
12664;BME280;6396;58.490;15.528;2023-07-13T06:28:32;100016.47;;;16.32;100.00
12664;BME280;6396;58.490;15.528;2023-07-13T06:30:59;100079.34;;;16.80;100.00
12664;BME280;6396;58.490;15.528;2023-07-13T06:33:27;100095.84;;;16.86;100.00
12664;BME280;6396;58.490;15.528;2023-07-13T06:35:54;100063.97;;;16.69;100.00
12664;BME280;6396;58.490;15.528;2023-07-13T06:38:21;100076.44;;;16.98;100.00
12664;BME280;6396;58.490;15.528;2023-07-13T06:40:48;100078.81;;;17.03;100.00
12664;BME280;6396;58.490;15.528;2023-07-13T06:43:15;100067.25;;;17.02;100.00
12664;BME280;6396;58.490;15.528;2023-07-13T06:45:44;100071.13;;;17.26;100.00
12664;BME280;6396;58.490;15.528;2023-07-13T06:48:12;100097.31;;;17.34;100.00
12664;BME280;6396;58.490;15.528;2023-07-13T06:50:40;100053.56;;;17.22;100.00
12664;BME280;6396;58.490;15.528;2023-07-13T06:53:07;100073.69;;;17.42;100.00
12664;BME280;6396;58.490;15.528;2023-07-13T06:55:34;100103.81;;;17.44;100.00
12664;BME280;6396;58.490;15.528;2023-07-13T06:58:01;100101.59;;;17.36;100.00
12664;BME280;6396;58.490;15.528;2023-07-13T07:00:28;100042.50;;;17.42;100.00
12664;BME280;6396;58.490;15.528;2023-07-13T07:02:56;99992.50;;;17.04;100.00
12664;BME280;6396;58.490;15.528;2023-07-13T07:05:23;99929.34;;;16.90;100.00
12664;BME280;6396;58.490;15.528;2023-07-13T07:07:51;99997.31;;;17.39;100.00
12664;BME280;6396;58.490;15.528;2023-07-13T07:10:18;100055.09;;;17.95;100.00
12664;BME280;6396;58.490;15.528;2023-07-13T07:12:45;100010.97;;;17.49;100.00
12664;BME280;6396;58.490;15.528;2023-07-13T07:15:12;100059.94;;;18.03;100.00
12664;BME280;6396;58.490;15.528;2023-07-13T07:17:39;100025.75;;;18.08;100.00
12664;BME280;6396;58.490;15.528;2023-07-13T07:20:09;100048.47;;;18.41;100.00
12664;BME280;6396;58.490;15.528;2023-07-13T07:22:36;100062.19;;;18.62;100.00
12664;BME280;6396;58.490;15.528;2023-07-13T07:25:03;100067.00;;;18.57;100.00
12664;BME280;6396;58.490;15.528;2023-07-13T07:27:30;100078.69;;;18.56;100.00
12664;BME280;6396;58.490;15.528;2023-07-13T07:29:57;100065.19;;;18.57;100.00
12664;BME280;6396;58.490;15.528;2023-07-13T07:32:24;99558.50;;;15.60;100.00
12664;BME280;6396;58.490;15.528;2023-07-13T07:34:50;100065.44;;;18.79;100.00
12664;BME280;6396;58.490;15.528;2023-07-13T07:37:19;100050.13;;;18.69;100.00
12664;BME280;6396;58.490;15.528;2023-07-13T07:39:45;100074.66;;;19.01;100.00
12664;BME280;6396;58.490;15.528;2023-07-13T07:42:12;100066.22;;;19.07;100.00
12664;BME280;6396;58.490;15.528;2023-07-13T07:44:40;99783.66;;;17.41;100.00
12664;BME280;6396;58.490;15.528;2023-07-13T07:47:07;100076.00;;;19.33;100.00
12664;BME280;6396;58.490;15.528;2023-07-13T07:49:34;100081.31;;;19.58;100.00
12664;BME280;6396;58.490;15.528;2023-07-13T07:52:01;100076.44;;;19.75;100.00
12664;BME280;6396;58.490;15.528;2023-07-13T07:54:29;99827.19;;;18.70;100.00
12664;BME280;6396;58.490;15.528;2023-07-13T07:56:56;100105.88;;;20.37;100.00
12664;BME280;6396;58.490;15.528;2023-07-13T07:59:22;100160.38;;;20.84;100.00
12664;BME280;6396;58.490;15.528;2023-07-13T08:01:49;99821.00;;;18.93;100.00
12664;BME280;6396;58.490;15.528;2023-07-13T08:04:16;99971.25;;;20.32;100.00
12664;BME280;6396;58.490;15.528;2023-07-13T08:06:44;100086.06;;;21.75;100.00
12664;BME280;6396;58.490;15.528;2023-07-13T08:09:11;100044.31;;;22.25;100.00
12664;BME280;6396;58.490;15.528;2023-07-13T08:11:39;100020.97;;;22.57;100.00
12664;BME280;6396;58.490;15.528;2023-07-13T08:14:06;99975.91;;;23.00;100.00
12664;BME280;6396;58.490;15.528;2023-07-13T08:16:34;100074.47;;;23.93;100.00
12664;BME280;6396;58.490;15.528;2023-07-13T08:19:01;100105.19;;;23.41;100.00
12664;BME280;6396;58.490;15.528;2023-07-13T08:21:29;100046.91;;;22.47;100.00
12664;BME280;6396;58.490;15.528;2023-07-13T08:23:56;100058.34;;;21.85;100.00
12664;BME280;6396;58.490;15.528;2023-07-13T08:26:24;100115.22;;;22.35;100.00
12664;BME280;6396;58.490;15.528;2023-07-13T08:29:09;100079.34;;;22.97;100.00
12664;BME280;6396;58.490;15.528;2023-07-13T08:31:49;100083.50;;;23.01;100.00
12664;BME280;6396;58.490;15.528;2023-07-13T08:34:23;100092.16;;;23.05;100.00
12664;BME280;6396;58.490;15.528;2023-07-13T08:36:53;100088.88;;;22.81;100.00
12664;BME280;6396;58.490;15.528;2023-07-13T08:39:25;99610.50;;;20.17;100.00
12664;BME280;6396;58.490;15.528;2023-07-13T08:42:00;100086.19;;;23.01;100.00
12664;BME280;6396;58.490;15.528;2023-07-13T08:44:37;99943.59;;;21.32;100.00
12664;BME280;6396;58.490;15.528;2023-07-13T08:47:17;99406.28;;;17.43;100.00
12664;BME280;6396;58.490;15.528;2023-07-13T08:49:53;99402.38;;;18.53;100.00
12664;BME280;6396;58.490;15.528;2023-07-13T08:52:31;99656.34;;;20.56;100.00
12664;BME280;6396;58.490;15.528;2023-07-13T08:55:05;99541.25;;;20.22;100.00
12664;BME280;6396;58.490;15.528;2023-07-13T08:57:35;100077.59;;;23.98;100.00
12664;BME280;6396;58.490;15.528;2023-07-13T09:00:24;99972.72;;;23.46;87.22
12664;BME280;6396;58.490;15.528;2023-07-13T09:03:00;100111.75;;;24.18;81.04
12664;BME280;6396;58.490;15.528;2023-07-13T09:05:30;100102.50;;;24.11;92.97
12664;BME280;6396;58.490;15.528;2023-07-13T09:08:16;100074.38;;;23.64;82.76
12664;BME280;6396;58.490;15.528;2023-07-13T09:10:51;100100.16;;;23.97;92.37
12664;BME280;6396;58.490;15.528;2023-07-13T09:13:26;100122.00;;;24.33;100.00
12664;BME280;6396;58.490;15.528;2023-07-13T09:15:58;100060.41;;;23.89;96.97
12664;BME280;6396;58.490;15.528;2023-07-13T09:18:28;100029.63;;;23.01;100.00
12664;BME280;6396;58.490;15.528;2023-07-13T09:21:00;100052.03;;;22.81;100.00
12664;BME280;6396;58.490;15.528;2023-07-13T09:23:30;100035.19;;;22.16;100.00
12664;BME280;6396;58.490;15.528;2023-07-13T09:26:01;100109.63;;;22.15;100.00
12664;BME280;6396;58.490;15.528;2023-07-13T09:28:34;100106.00;;;21.72;100.00
12664;BME280;6396;58.490;15.528;2023-07-13T09:31:08;100109.41;;;21.74;100.00
12664;BME280;6396;58.490;15.528;2023-07-13T09:33:38;100101.09;;;22.53;100.00
12664;BME280;6396;58.490;15.528;2023-07-13T09:36:18;100128.91;;;23.27;100.00
12664;BME280;6396;58.490;15.528;2023-07-13T09:38:47;99939.72;;;22.52;100.00
12664;BME280;6396;58.490;15.528;2023-07-13T09:41:20;100105.25;;;23.81;100.00
12664;BME280;6396;58.490;15.528;2023-07-13T09:44:08;100091.78;;;23.90;96.74
12664;BME280;6396;58.490;15.528;2023-07-13T09:46:39;99747.09;;;21.37;100.00
12664;BME280;6396;58.490;15.528;2023-07-13T09:49:09;99742.91;;;20.69;100.00
12664;BME280;6396;58.490;15.528;2023-07-13T09:52:11;100111.31;;;22.16;100.00
12664;BME280;6396;58.490;15.528;2023-07-13T09:54:46;99835.06;;;20.24;100.00
12664;BME280;6396;58.490;15.528;2023-07-13T09:57:15;99847.53;;;19.90;100.00
12664;BME280;6396;58.490;15.528;2023-07-13T09:59:44;100103.91;;;21.54;100.00
12664;BME280;6396;58.490;15.528;2023-07-13T10:02:28;100094.22;;;22.17;100.00
12664;BME280;6396;58.490;15.528;2023-07-13T10:04:58;100060.75;;;22.10;100.00
12664;BME280;6396;58.490;15.528;2023-07-13T10:07:25;100040.50;;;21.95;100.00
12664;BME280;6396;58.490;15.528;2023-07-13T10:09:52;100100.81;;;22.25;100.00
12664;BME280;6396;58.490;15.528;2023-07-13T10:12:21;100092.44;;;22.39;100.00
12664;BME280;6396;58.490;15.528;2023-07-13T10:14:50;100003.50;;;22.20;100.00
12664;BME280;6396;58.490;15.528;2023-07-13T10:17:25;100089.63;;;22.83;100.00
12664;BME280;6396;58.490;15.528;2023-07-13T10:19:53;100083.63;;;23.00;100.00
12664;BME280;6396;58.490;15.528;2023-07-13T10:22:26;100090.84;;;23.20;100.00
12664;BME280;6396;58.490;15.528;2023-07-13T10:24:54;100082.50;;;23.02;100.00
12664;BME280;6396;58.490;15.528;2023-07-13T10:27:29;99930.75;;;21.89;100.00
12664;BME280;6396;58.490;15.528;2023-07-13T10:30:06;100084.84;;;22.55;100.00
12664;BME280;6396;58.490;15.528;2023-07-13T10:32:39;100110.09;;;22.21;100.00
12664;BME280;6396;58.490;15.528;2023-07-13T10:35:09;100061.50;;;21.68;100.00
12664;BME280;6396;58.490;15.528;2023-07-13T10:37:49;100090.72;;;21.84;100.00
12664;BME280;6396;58.490;15.528;2023-07-13T10:40:20;100075.94;;;21.67;100.00
12664;BME280;6396;58.490;15.528;2023-07-13T10:42:51;100111.13;;;21.75;100.00
12664;BME280;6396;58.490;15.528;2023-07-13T10:45:22;100102.19;;;21.75;100.00
12664;BME280;6396;58.490;15.528;2023-07-13T10:47:52;99941.97;;;20.96;100.00
12664;BME280;6396;58.490;15.528;2023-07-13T10:50:23;99999.47;;;21.05;100.00
12664;BME280;6396;58.490;15.528;2023-07-13T10:52:52;100025.25;;;21.08;100.00
12664;BME280;6396;58.490;15.528;2023-07-13T10:55:36;100089.00;;;21.39;100.00
12664;BME280;6396;58.490;15.528;2023-07-13T10:58:12;100077.16;;;21.30;100.00
12664;BME280;6396;58.490;15.528;2023-07-13T11:00:49;100082.16;;;21.35;100.00
12664;BME280;6396;58.490;15.528;2023-07-13T11:03:20;99888.00;;;19.98;100.00
12664;BME280;6396;58.490;15.528;2023-07-13T11:05:49;100087.50;;;21.13;100.00
12664;BME280;6396;58.490;15.528;2023-07-13T11:08:20;100053.75;;;20.86;100.00
12664;BME280;6396;58.490;15.528;2023-07-13T11:10:53;99957.72;;;20.22;100.00
12664;BME280;6396;58.490;15.528;2023-07-13T11:13:39;99586.25;;;17.90;100.00
12664;BME280;6396;58.490;15.528;2023-07-13T11:16:53;100097.81;;;20.60;100.00
12664;BME280;6396;58.490;15.528;2023-07-13T11:19:40;100088.03;;;20.59;100.00
12664;BME280;6396;58.490;15.528;2023-07-13T11:22:25;100129.56;;;20.43;100.00
12664;BME280;6396;58.490;15.528;2023-07-13T11:25:29;100094.91;;;20.63;100.00
12664;BME280;6396;58.490;15.528;2023-07-13T11:28:14;99928.00;;;19.78;100.00
12664;BME280;6396;58.490;15.528;2023-07-13T11:30:46;100018.91;;;20.28;100.00
12664;BME280;6396;58.490;15.528;2023-07-13T11:33:18;100047.91;;;20.58;100.00
12664;BME280;6396;58.490;15.528;2023-07-13T11:35:51;99899.59;;;19.75;100.00
12664;BME280;6396;58.490;15.528;2023-07-13T11:38:22;100037.09;;;20.70;100.00
12664;BME280;6396;58.490;15.528;2023-07-13T11:40:53;99984.22;;;20.49;100.00
12664;BME280;6396;58.490;15.528;2023-07-13T11:43:20;99895.28;;;19.85;100.00
12664;BME280;6396;58.490;15.528;2023-07-13T11:45:49;100109.38;;;21.30;100.00
12664;BME280;6396;58.490;15.528;2023-07-13T11:48:25;100107.56;;;21.42;100.00
12664;BME280;6396;58.490;15.528;2023-07-13T11:51:00;99835.34;;;19.86;100.00
12664;BME280;6396;58.490;15.528;2023-07-13T11:53:34;100089.13;;;21.59;100.00
12664;BME280;6396;58.490;15.528;2023-07-13T11:56:01;100087.91;;;21.63;100.00
12664;BME280;6396;58.490;15.528;2023-07-13T11:58:28;100111.47;;;21.49;100.00
12664;BME280;6396;58.490;15.528;2023-07-13T12:00:58;100046.38;;;21.12;100.00
12664;BME280;6396;58.490;15.528;2023-07-13T12:03:27;100093.03;;;21.33;100.00
12664;BME280;6396;58.490;15.528;2023-07-13T12:06:04;100076.91;;;21.33;100.00
12664;BME280;6396;58.490;15.528;2023-07-13T12:08:38;100069.81;;;21.21;100.00
12664;BME280;6396;58.490;15.528;2023-07-13T12:11:14;99881.16;;;19.94;100.00
12664;BME280;6396;58.490;15.528;2023-07-13T12:13:43;99907.97;;;19.94;100.00
12664;BME280;6396;58.490;15.528;2023-07-13T12:16:16;99623.44;;;18.16;100.00
12664;BME280;6396;58.490;15.528;2023-07-13T12:19:02;99811.03;;;19.31;100.00
12664;BME280;6396;58.490;15.528;2023-07-13T12:21:39;99407.59;;;16.89;100.00
12664;BME280;6396;58.490;15.528;2023-07-13T12:24:39;99840.41;;;19.67;100.00
12664;BME280;6396;58.490;15.528;2023-07-13T12:27:25;100078.63;;;21.34;100.00
12664;BME280;6396;58.490;15.528;2023-07-13T12:30:34;99241.59;;;16.26;100.00
12664;BME280;6396;58.490;15.528;2023-07-13T12:33:24;99422.63;;;17.03;100.00
12664;BME280;6396;58.490;15.528;2023-07-13T12:35:52;99847.25;;;19.71;100.00
12664;BME280;6396;58.490;15.528;2023-07-13T12:38:21;100091.03;;;21.02;100.00
12664;BME280;6396;58.490;15.528;2023-07-13T12:40:51;99784.63;;;19.14;100.00
12664;BME280;6396;58.490;15.528;2023-07-13T12:43:20;100065.63;;;20.71;100.00
12664;BME280;6396;58.490;15.528;2023-07-13T12:45:58;99892.31;;;19.30;100.00
12664;BME280;6396;58.490;15.528;2023-07-13T12:48:26;100083.78;;;20.57;100.00
12664;BME280;6396;58.490;15.528;2023-07-13T12:50:55;100145.72;;;20.54;100.00
12664;BME280;6396;58.490;15.528;2023-07-13T12:53:28;100021.91;;;20.00;100.00
12664;BME280;6396;58.490;15.528;2023-07-13T12:55:58;100111.53;;;20.45;100.00
12664;BME280;6396;58.490;15.528;2023-07-13T12:58:27;100040.22;;;20.19;100.00
12664;BME280;6396;58.490;15.528;2023-07-13T13:00:55;99924.06;;;19.47;100.00